createdAt,value
2023-01-09T07:46:59.060Z,92.23
2023-01-09T07:50:02.353Z,92.23
2023-01-09T07:53:05.115Z,94.01
2023-01-09T07:56:08.139Z,93.34
2023-01-09T07:59:10.729Z,92.18
2023-01-09T08:02:13.704Z,91.72
2023-01-09T08:05:16.983Z,91.88
2023-01-09T08:08:19.474Z,91.07
2023-01-09T08:11:22.496Z,90.45
2023-01-09T08:14:24.987Z,91.08
2023-01-09T08:17:28.225Z,89.69
2023-01-09T08:20:31.274Z,89.41
2023-01-09T08:23:34.080Z,88.49
2023-01-09T08:26:36.522Z,88.82
2023-01-09T08:29:39.508Z,89.32
2023-01-09T08:32:42.178Z,88.36
2023-01-09T08:35:44.994Z,88.72
2023-01-09T08:38:47.552Z,87.76
2023-01-09T08:42:09.098Z,87.69
2023-01-09T08:45:31.002Z,87.70
2023-01-09T08:48:33.844Z,87.41
2023-01-09T08:51:37.278Z,88.97
2023-01-09T08:54:40.572Z,89.42
2023-01-09T08:57:53.329Z,89.98
2023-01-09T09:00:56.522Z,90.71
2023-01-09T09:03:59.154Z,90.84
2023-01-09T09:07:01.941Z,90.53
2023-01-09T09:10:04.913Z,89.78
2023-01-09T09:13:07.734Z,90.87
2023-01-09T09:16:10.321Z,90.79
2023-01-09T09:19:13.204Z,91.72
2023-01-09T09:22:15.721Z,91.86
2023-01-09T09:25:19.863Z,91.01
2023-01-09T09:28:22.438Z,91.66
2023-01-09T09:31:25.413Z,91.79
2023-01-09T09:34:27.981Z,91.92
2023-01-09T09:37:30.874Z,92.53
2023-01-09T09:41:00.848Z,92.54
2023-01-09T09:44:59.826Z,91.56
2023-01-09T09:48:14.480Z,93.10
2023-01-09T09:51:42.559Z,92.19
2023-01-09T09:54:49.477Z,93.71
2023-01-09T09:57:53.384Z,93.57
2023-01-09T10:00:56.251Z,94.06
2023-01-09T10:04:00.840Z,94.03
2023-01-09T10:07:09.412Z,93.84
2023-01-09T10:10:36.242Z,93.72
2023-01-09T10:13:57.297Z,95.11
2023-01-09T10:17:31.266Z,95.21
2023-01-09T10:20:42.655Z,94.95
2023-01-09T10:24:06.941Z,95.59
2023-01-09T10:27:29.696Z,96.00
2023-01-09T10:30:46.365Z,96.39
2023-01-09T10:34:04.604Z,96.00
2023-01-09T10:37:34.214Z,95.91
2023-01-09T10:40:40.673Z,96.50
2023-01-09T10:43:47.627Z,96.83
2023-01-09T10:46:54.949Z,96.50
2023-01-09T10:49:59.009Z,96.58
2023-01-09T10:53:05.717Z,96.43
2023-01-09T10:56:18.941Z,96.99
2023-01-09T10:59:22.792Z,97.72
2023-01-09T11:02:34.175Z,97.72
2023-01-09T11:05:36.836Z,97.84
2023-01-09T11:08:42.214Z,97.35
2023-01-09T11:11:45.517Z,98.31
2023-01-09T11:14:48.261Z,98.30
2023-01-09T11:17:51.656Z,98.93
2023-01-09T11:20:54.526Z,98.84
2023-01-09T11:23:57.527Z,99.15
2023-01-09T11:27:12.615Z,98.94
2023-01-09T11:30:26.440Z,99.08
2023-01-09T11:33:31.739Z,99.19
2023-01-09T11:36:34.534Z,99.38
2023-01-09T11:39:41.808Z,99.82
2023-01-09T11:43:06.425Z,98.93
2023-01-09T11:46:11.580Z,98.98
2023-01-09T11:49:17.985Z,99.18
2023-01-09T11:52:22.164Z,99.43
2023-01-09T11:55:29.361Z,100.00
2023-01-09T11:58:35.262Z,100.00
2023-01-09T12:01:46.471Z,100.00
2023-01-09T12:05:09.480Z,100.00
2023-01-09T12:08:30.129Z,99.80
2023-01-09T12:11:36.058Z,100.00
2023-01-09T12:14:51.666Z,99.86
2023-01-09T12:17:57.376Z,99.95
2023-01-09T12:21:06.669Z,100.00
2023-01-09T12:24:39.025Z,100.00
2023-01-09T12:27:52.174Z,100.00
2023-01-09T12:31:23.021Z,100.00
2023-01-09T12:35:04.033Z,100.00
2023-01-09T12:38:28.276Z,100.00
2023-01-09T12:41:44.805Z,100.00
2023-01-09T12:45:08.485Z,100.00
2023-01-09T12:48:38.718Z,100.00
2023-01-09T12:52:07.985Z,100.00
2023-01-09T12:55:25.774Z,100.00
2023-01-09T12:58:39.778Z,100.00
2023-01-09T13:01:46.364Z,100.00
2023-01-09T13:05:01.522Z,100.00
2023-01-09T13:08:25.416Z,100.00
2023-01-09T13:11:40.831Z,100.00
2023-01-09T13:15:00.131Z,100.00
2023-01-09T13:18:13.027Z,100.00
2023-01-09T13:21:16.078Z,100.00
2023-01-09T13:24:30.343Z,100.00
2023-01-09T13:27:39.046Z,100.00
2023-01-09T13:30:58.817Z,100.00
2023-01-09T13:34:04.534Z,100.00
2023-01-09T13:37:21.541Z,100.00
2023-01-09T13:40:26.696Z,100.00
2023-01-09T13:43:56.270Z,100.00
2023-01-09T13:47:00.822Z,100.00
2023-01-09T13:50:09.779Z,100.00
2023-01-09T13:53:18.739Z,100.00
2023-01-09T13:56:23.785Z,100.00
2023-01-09T13:59:28.494Z,100.00
2023-01-09T14:02:34.363Z,100.00
2023-01-09T14:05:37.229Z,100.00
2023-01-09T14:08:41.984Z,100.00
2023-01-09T14:11:45.843Z,100.00
2023-01-09T14:14:49.423Z,100.00
2023-01-09T14:18:03.196Z,100.00
2023-01-09T14:24:25.196Z,100.00
2023-01-09T14:27:55.855Z,100.00
2023-01-09T14:30:58.532Z,100.00
2023-01-09T14:34:35.639Z,100.00
2023-01-09T14:37:40.942Z,100.00
2023-01-09T14:40:52.309Z,100.00
2023-01-09T14:44:01.212Z,100.00
2023-01-09T14:47:24.508Z,100.00
2023-01-09T14:50:37.799Z,100.00
2023-01-09T14:53:40.629Z,100.00
2023-01-09T14:56:47.056Z,100.00
2023-01-09T15:00:01.327Z,100.00
2023-01-09T15:03:04.525Z,100.00
2023-01-09T15:06:12.573Z,100.00
2023-01-09T15:09:23.271Z,100.00
2023-01-09T15:12:26.188Z,100.00
2023-01-09T15:15:29.035Z,100.00
2023-01-09T15:18:40.349Z,100.00
2023-01-09T15:21:56.954Z,100.00
2023-01-09T15:25:00.199Z,100.00
2023-01-09T15:28:22.084Z,100.00
2023-01-09T15:31:24.842Z,100.00
2023-01-09T15:34:27.793Z,100.00
2023-01-09T15:37:39.552Z,100.00
2023-01-09T15:40:42.370Z,100.00
2023-01-09T15:43:44.845Z,100.00
2023-01-09T15:46:50.093Z,100.00
2023-01-09T15:49:53.146Z,100.00
2023-01-09T15:52:56.611Z,100.00
2023-01-09T15:56:23.939Z,100.00
2023-01-09T15:59:28.467Z,100.00
2023-01-09T16:02:49.636Z,100.00
2023-01-09T16:06:05.582Z,100.00
2023-01-09T16:09:16.210Z,100.00
2023-01-09T16:12:24.591Z,100.00
2023-01-09T16:15:29.212Z,100.00
2023-01-09T16:18:37.731Z,100.00
2023-01-09T16:21:40.792Z,100.00
2023-01-09T16:24:43.585Z,100.00
2023-01-09T16:28:08.607Z,100.00
2023-01-09T16:31:23.863Z,100.00
2023-01-09T16:34:26.505Z,100.00
2023-01-09T16:37:29.482Z,100.00
2023-01-09T16:40:36.025Z,100.00
2023-01-09T16:43:38.915Z,100.00
2023-01-09T16:46:43.761Z,100.00
2023-01-09T16:49:46.560Z,100.00
2023-01-09T16:52:49.016Z,100.00
2023-01-09T16:55:53.261Z,100.00
2023-01-09T16:58:56.090Z,100.00
2023-01-09T17:01:59.132Z,100.00
2023-01-09T17:05:03.045Z,100.00
2023-01-09T17:08:23.069Z,100.00
2023-01-09T17:11:31.483Z,100.00
2023-01-09T17:14:34.410Z,100.00
2023-01-09T17:17:36.890Z,100.00
2023-01-09T17:20:41.356Z,100.00
2023-01-09T17:23:44.326Z,100.00
2023-01-09T17:27:08.385Z,100.00
2023-01-09T17:30:18.994Z,100.00
2023-01-09T17:33:22.156Z,100.00
2023-01-09T17:36:28.240Z,100.00
2023-01-09T17:39:31.020Z,100.00
2023-01-09T17:42:33.572Z,100.00
2023-01-09T17:45:43.352Z,100.00
2023-01-09T17:48:46.381Z,100.00
2023-01-09T17:51:49.996Z,100.00
2023-01-09T17:54:52.516Z,100.00
2023-01-09T17:57:55.308Z,100.00
2023-01-09T18:00:58.922Z,100.00
2023-01-09T18:04:01.796Z,100.00
2023-01-09T18:07:04.400Z,100.00
2023-01-09T18:10:07.670Z,100.00
2023-01-09T18:13:11.041Z,100.00
2023-01-09T18:16:16.827Z,100.00
2023-01-09T18:19:19.510Z,100.00
2023-01-09T18:22:22.512Z,100.00
2023-01-09T18:25:25.109Z,100.00
2023-01-09T18:28:28.112Z,100.00
2023-01-09T18:31:31.306Z,100.00
2023-01-09T18:34:34.603Z,100.00
2023-01-09T18:37:37.450Z,100.00
2023-01-09T18:40:41.687Z,100.00
2023-01-09T18:43:44.345Z,100.00
2023-01-09T18:46:47.135Z,100.00
2023-01-09T18:49:50.148Z,100.00
2023-01-09T18:52:53.919Z,100.00
2023-01-09T18:55:56.698Z,100.00
2023-01-09T18:58:59.681Z,100.00
2023-01-09T19:02:02.445Z,100.00
2023-01-09T19:05:05.646Z,100.00
2023-01-09T19:08:08.242Z,100.00
2023-01-09T19:11:11.370Z,100.00
2023-01-09T19:14:14.265Z,100.00
2023-01-09T19:17:17.287Z,100.00
2023-01-09T19:20:20.177Z,100.00
2023-01-09T19:23:26.441Z,100.00
2023-01-09T19:26:30.999Z,100.00
2023-01-09T19:29:36.458Z,100.00
2023-01-09T19:32:40.019Z,100.00
2023-01-09T19:35:48.880Z,100.00
2023-01-09T19:39:00.056Z,100.00
2023-01-09T19:42:03.479Z,100.00
2023-01-09T19:45:06.722Z,100.00
2023-01-09T19:48:09.551Z,100.00
2023-01-09T19:51:12.945Z,100.00
2023-01-09T19:54:16.113Z,100.00
2023-01-09T19:57:18.893Z,100.00
2023-01-09T20:00:21.919Z,100.00
2023-01-09T20:03:27.742Z,100.00
2023-01-09T20:06:31.285Z,100.00
2023-01-09T20:09:35.014Z,100.00
2023-01-09T20:12:37.643Z,100.00
2023-01-09T20:15:40.639Z,100.00
2023-01-09T20:18:43.432Z,100.00
2023-01-09T20:21:47.575Z,100.00
2023-01-09T20:24:50.116Z,100.00
2023-01-09T20:27:52.922Z,100.00
2023-01-09T20:30:55.404Z,100.00
2023-01-09T20:34:02.008Z,100.00
2023-01-09T20:37:04.866Z,100.00
2023-01-09T20:40:10.189Z,100.00
2023-01-09T20:43:12.964Z,100.00
2023-01-09T20:46:15.967Z,100.00
2023-01-09T20:49:18.619Z,100.00
2023-01-09T20:52:22.591Z,100.00
2023-01-09T20:55:25.059Z,100.00
2023-01-09T20:58:28.745Z,100.00
2023-01-09T21:01:31.430Z,100.00
2023-01-09T21:04:34.345Z,100.00
2023-01-09T21:07:36.865Z,100.00
2023-01-09T21:10:39.622Z,100.00
2023-01-09T21:13:42.391Z,100.00
2023-01-09T21:16:53.777Z,100.00
2023-01-09T21:19:57.303Z,100.00
2023-01-09T21:23:00.399Z,100.00
2023-01-09T21:26:09.771Z,100.00
2023-01-09T21:29:12.854Z,100.00
2023-01-09T21:32:15.418Z,100.00
2023-01-09T21:35:18.279Z,100.00
2023-01-09T21:38:21.457Z,100.00
2023-01-09T21:41:42.879Z,100.00
2023-01-09T21:45:03.973Z,100.00
2023-01-09T21:48:07.069Z,100.00
2023-01-09T21:51:09.526Z,100.00
2023-01-09T21:54:12.442Z,100.00
2023-01-09T21:57:14.979Z,100.00
2023-01-09T22:00:18.632Z,100.00
2023-01-09T22:03:22.103Z,100.00
2023-01-09T22:06:24.869Z,100.00
2023-01-09T22:09:27.789Z,100.00
2023-01-09T22:12:30.315Z,100.00
2023-01-09T22:15:33.031Z,100.00
2023-01-09T22:18:36.086Z,100.00
2023-01-09T22:21:39.159Z,100.00
2023-01-09T22:24:41.686Z,100.00
2023-01-09T22:27:44.526Z,100.00
2023-01-09T22:30:47.170Z,100.00
2023-01-09T22:33:53.988Z,100.00
2023-01-09T22:36:56.555Z,100.00
2023-01-09T22:39:59.421Z,100.00
2023-01-09T22:43:01.978Z,100.00
2023-01-09T22:46:06.786Z,100.00
2023-01-09T22:49:12.174Z,100.00
2023-01-09T22:52:15.119Z,100.00
2023-01-09T22:55:18.126Z,100.00
2023-01-09T22:58:20.951Z,100.00
2023-01-09T23:01:23.395Z,100.00
2023-01-09T23:04:26.225Z,100.00
2023-01-09T23:07:28.777Z,100.00
2023-01-09T23:10:31.669Z,100.00
2023-01-09T23:13:34.187Z,100.00
2023-01-09T23:16:37.074Z,100.00
2023-01-09T23:19:40.581Z,100.00
2023-01-09T23:22:43.405Z,100.00
2023-01-09T23:25:50.662Z,100.00
2023-01-09T23:28:53.555Z,100.00
2023-01-09T23:31:56.410Z,100.00
2023-01-09T23:34:59.310Z,100.00
2023-01-09T23:38:01.941Z,100.00
2023-01-09T23:41:05.000Z,100.00
2023-01-09T23:44:07.561Z,100.00
2023-01-09T23:47:10.383Z,100.00
2023-01-09T23:50:13.025Z,100.00
2023-01-09T23:53:16.431Z,100.00
2023-01-09T23:56:18.946Z,100.00
2023-01-09T23:59:21.827Z,100.00
